Alboraya, Spain
Current Conditions -  °F | °C
As of 6:30 PM on Monday 24 Nov 2014 (Local Time) from LEVC Reporting Station
Broken Clouds Broken Clouds  
Wind Chill: 19°   Ceiling: 3000
Heat Index: 19°   Visibility: 6mi
Dew Point: 17°   Wind: 2mph
Humidity: 88%   Direction: NA
Pressure: 30"   Gusts: NA
Location:  39.5°N, 0.35°W
Report Text: LEVC 241730Z VRB02KT 9999 FEW013 BKN030 19/17 Q1016 NOSIG
Loading
Personal Weather Stations






























Interactive Weather Map New forecast layout! Learn more

10-Day Weather Forecast

Advertisements
Track Severe Weather on mobile